sensor_id;sensor_type;location;lat;lon;timestamp;temperature;humidity
65199;HTU21D;52170;45.018;37.910;2023-06-01T00:01:30;18.15;85.20
65199;HTU21D;52170;45.018;37.910;2023-06-01T00:03:59;18.13;85.22
65199;HTU21D;52170;45.018;37.910;2023-06-01T00:06:25;18.14;85.22
65199;HTU21D;52170;45.018;37.910;2023-06-01T00:08:56;18.13;85.20
65199;HTU21D;52170;45.018;37.910;2023-06-01T00:11:23;18.12;85.24
65199;HTU21D;52170;45.018;37.910;2023-06-01T00:13:49;18.08;85.29
65199;HTU21D;52170;45.018;37.910;2023-06-01T00:16:16;18.06;85.35
65199;HTU21D;52170;45.018;37.910;2023-06-01T00:18:42;18.05;85.41
65199;HTU21D;52170;45.018;37.910;2023-06-01T00:21:09;18.03;85.45
65199;HTU21D;52170;45.018;37.910;2023-06-01T00:23:35;18.03;85.47
65199;HTU21D;52170;45.018;37.910;2023-06-01T00:26:02;18.03;85.50
65199;HTU21D;52170;45.018;37.910;2023-06-01T00:28:28;18.02;85.52
65199;HTU21D;52170;45.018;37.910;2023-06-01T00:30:54;18.02;85.55
65199;HTU21D;52170;45.018;37.910;2023-06-01T00:33:20;18.00;85.58
65199;HTU21D;52170;45.018;37.910;2023-06-01T00:35:48;18.02;85.55
65199;HTU21D;52170;45.018;37.910;2023-06-01T00:38:15;18.02;85.56
65199;HTU21D;52170;45.018;37.910;2023-06-01T00:40:41;18.03;85.56
65199;HTU21D;52170;45.018;37.910;2023-06-01T00:43:09;18.05;85.55
65199;HTU21D;52170;45.018;37.910;2023-06-01T00:45:35;18.05;85.55
65199;HTU21D;52170;45.018;37.910;2023-06-01T00:48:01;18.05;85.56
65199;HTU21D;52170;45.018;37.910;2023-06-01T00:50:27;18.06;85.54
65199;HTU21D;52170;45.018;37.910;2023-06-01T00:52:53;18.06;85.52
65199;HTU21D;52170;45.018;37.910;2023-06-01T00:55:20;18.07;85.48
65199;HTU21D;52170;45.018;37.910;2023-06-01T00:57:48;18.08;85.48
65199;HTU21D;52170;45.018;37.910;2023-06-01T01:00:15;18.08;85.45
65199;HTU21D;52170;45.018;37.910;2023-06-01T01:02:43;18.08;85.46
65199;HTU21D;52170;45.018;37.910;2023-06-01T01:05:17;18.07;85.47
65199;HTU21D;52170;45.018;37.910;2023-06-01T01:13:22;18.07;85.51
65199;HTU21D;52170;45.018;37.910;2023-06-01T01:16:00;18.08;85.48
65199;HTU21D;52170;45.018;37.910;2023-06-01T01:18:42;18.08;85.53
65199;HTU21D;52170;45.018;37.910;2023-06-01T01:21:12;18.08;85.48
65199;HTU21D;52170;45.018;37.910;2023-06-01T01:29:23;18.06;85.55
65199;HTU21D;52170;45.018;37.910;2023-06-01T01:31:52;18.06;85.62
65199;HTU21D;52170;45.018;37.910;2023-06-01T01:34:20;18.10;87.75
65199;HTU21D;52170;45.018;37.910;2023-06-01T01:36:47;18.11;87.32
65199;HTU21D;52170;45.018;37.910;2023-06-01T01:39:12;18.11;87.01
65199;HTU21D;52170;45.018;37.910;2023-06-01T01:41:38;18.11;86.83
65199;HTU21D;52170;45.018;37.910;2023-06-01T01:44:04;18.11;86.74
65199;HTU21D;52170;45.018;37.910;2023-06-01T01:46:55;18.09;86.67
65199;HTU21D;52170;45.018;37.910;2023-06-01T01:49:28;18.07;86.61
65199;HTU21D;52170;45.018;37.910;2023-06-01T01:52:21;18.04;86.70
65199;HTU21D;52170;45.018;37.910;2023-06-01T01:54:50;17.99;86.69
65199;HTU21D;52170;45.018;37.910;2023-06-01T01:57:17;17.98;86.69
65199;HTU21D;52170;45.018;37.910;2023-06-01T01:59:46;17.97;86.70
65199;HTU21D;52170;45.018;37.910;2023-06-01T02:02:12;17.97;86.64
65199;HTU21D;52170;45.018;37.910;2023-06-01T02:04:40;17.98;86.61
65199;HTU21D;52170;45.018;37.910;2023-06-01T02:07:08;17.98;86.58
65199;HTU21D;52170;45.018;37.910;2023-06-01T02:09:34;17.96;86.61
65199;HTU21D;52170;45.018;37.910;2023-06-01T02:12:00;17.94;86.61
65199;HTU21D;52170;45.018;37.910;2023-06-01T02:14:29;17.94;86.62
65199;HTU21D;52170;45.018;37.910;2023-06-01T02:16:55;17.92;86.64
65199;HTU21D;52170;45.018;37.910;2023-06-01T02:19:21;17.91;86.66
65199;HTU21D;52170;45.018;37.910;2023-06-01T02:21:47;17.88;86.70
65199;HTU21D;52170;45.018;37.910;2023-06-01T02:24:13;17.85;86.76
65199;HTU21D;52170;45.018;37.910;2023-06-01T02:26:39;17.84;86.78
65199;HTU21D;52170;45.018;37.910;2023-06-01T02:29:05;17.82;86.78
65199;HTU21D;52170;45.018;37.910;2023-06-01T02:31:32;17.82;86.77
65199;HTU21D;52170;45.018;37.910;2023-06-01T02:33:59;17.83;86.72
65199;HTU21D;52170;45.018;37.910;2023-06-01T02:36:28;17.85;86.69
65199;HTU21D;52170;45.018;37.910;2023-06-01T02:38:55;17.85;86.68
65199;HTU21D;52170;45.018;37.910;2023-06-01T02:41:21;17.88;86.65
65199;HTU21D;52170;45.018;37.910;2023-06-01T02:43:48;17.90;86.62
65199;HTU21D;52170;45.018;37.910;2023-06-01T02:46:19;17.94;86.58
65199;HTU21D;52170;45.018;37.910;2023-06-01T02:48:46;17.97;86.61
65199;HTU21D;52170;45.018;37.910;2023-06-01T02:51:12;17.98;86.61
65199;HTU21D;52170;45.018;37.910;2023-06-01T02:53:40;17.99;86.65
65199;HTU21D;52170;45.018;37.910;2023-06-01T02:56:08;18.02;86.63
65199;HTU21D;52170;45.018;37.910;2023-06-01T02:58:44;18.04;86.56
65199;HTU21D;52170;45.018;37.910;2023-06-01T03:01:19;18.08;86.46
65199;HTU21D;52170;45.018;37.910;2023-06-01T03:03:47;18.13;86.38
65199;HTU21D;52170;45.018;37.910;2023-06-01T03:06:13;18.19;86.31
65199;HTU21D;52170;45.018;37.910;2023-06-01T03:08:58;18.23;86.25
65199;HTU21D;52170;45.018;37.910;2023-06-01T03:11:48;18.28;86.15
65199;HTU21D;52170;45.018;37.910;2023-06-01T03:14:14;18.33;86.15
65199;HTU21D;52170;45.018;37.910;2023-06-01T03:16:40;18.36;86.19
65199;HTU21D;52170;45.018;37.910;2023-06-01T03:19:17;18.38;86.21
65199;HTU21D;52170;45.018;37.910;2023-06-01T03:21:46;18.38;86.29
65199;HTU21D;52170;45.018;37.910;2023-06-01T03:24:14;18.39;86.36
65199;HTU21D;52170;45.018;37.910;2023-06-01T03:26:40;18.39;86.25
65199;HTU21D;52170;45.018;37.910;2023-06-01T03:29:06;18.40;86.16
65199;HTU21D;52170;45.018;37.910;2023-06-01T03:31:33;18.40;86.26
65199;HTU21D;52170;45.018;37.910;2023-06-01T03:34:02;18.40;86.37
65199;HTU21D;52170;45.018;37.910;2023-06-01T03:36:28;18.37;86.46
65199;HTU21D;52170;45.018;37.910;2023-06-01T03:38:54;18.36;86.61
65199;HTU21D;52170;45.018;37.910;2023-06-01T03:41:23;18.34;86.73
65199;HTU21D;52170;45.018;37.910;2023-06-01T03:43:49;18.32;86.83
65199;HTU21D;52170;45.018;37.910;2023-06-01T03:46:16;18.30;86.85
65199;HTU21D;52170;45.018;37.910;2023-06-01T03:48:43;18.33;86.93
65199;HTU21D;52170;45.018;37.910;2023-06-01T03:51:09;18.30;87.08
65199;HTU21D;52170;45.018;37.910;2023-06-01T03:53:36;18.30;87.16
65199;HTU21D;52170;45.018;37.910;2023-06-01T03:56:02;18.35;87.13
65199;HTU21D;52170;45.018;37.910;2023-06-01T03:58:35;18.37;87.12
65199;HTU21D;52170;45.018;37.910;2023-06-01T04:01:02;18.41;87.11
65199;HTU21D;52170;45.018;37.910;2023-06-01T04:03:29;18.48;87.13
65199;HTU21D;52170;45.018;37.910;2023-06-01T04:05:55;18.55;87.02
65199;HTU21D;52170;45.018;37.910;2023-06-01T04:08:25;18.64;86.90
65199;HTU21D;52170;45.018;37.910;2023-06-01T04:10:52;18.72;86.77
65199;HTU21D;52170;45.018;37.910;2023-06-01T04:13:18;18.77;86.70
65199;HTU21D;52170;45.018;37.910;2023-06-01T04:15:45;18.82;86.62
65199;HTU21D;52170;45.018;37.910;2023-06-01T04:18:12;18.87;86.61
65199;HTU21D;52170;45.018;37.910;2023-06-01T04:20:49;18.91;86.57
65199;HTU21D;52170;45.018;37.910;2023-06-01T04:23:15;18.94;86.56
65199;HTU21D;52170;45.018;37.910;2023-06-01T04:25:41;18.97;86.55
65199;HTU21D;52170;45.018;37.910;2023-06-01T04:28:10;19.03;86.51
65199;HTU21D;52170;45.018;37.910;2023-06-01T04:30:37;19.08;86.48
65199;HTU21D;52170;45.018;37.910;2023-06-01T04:33:03;19.14;86.45
65199;HTU21D;52170;45.018;37.910;2023-06-01T04:35:30;19.16;86.47
65199;HTU21D;52170;45.018;37.910;2023-06-01T04:37:57;19.17;86.49
65199;HTU21D;52170;45.018;37.910;2023-06-01T04:40:24;19.15;86.51
65199;HTU21D;52170;45.018;37.910;2023-06-01T04:42:50;19.16;86.50
65199;HTU21D;52170;45.018;37.910;2023-06-01T04:45:21;19.17;86.42
65199;HTU21D;52170;45.018;37.910;2023-06-01T04:47:49;19.18;86.25
65199;HTU21D;52170;45.018;37.910;2023-06-01T04:50:21;19.17;86.16
65199;HTU21D;52170;45.018;37.910;2023-06-01T04:52:47;19.14;86.07
65199;HTU21D;52170;45.018;37.910;2023-06-01T04:55:14;19.16;85.96
65199;HTU21D;52170;45.018;37.910;2023-06-01T04:57:40;19.16;85.91
65199;HTU21D;52170;45.018;37.910;2023-06-01T05:00:09;19.18;85.83
65199;HTU21D;52170;45.018;37.910;2023-06-01T05:02:42;19.17;85.72
65199;HTU21D;52170;45.018;37.910;2023-06-01T05:05:10;19.17;85.70
65199;HTU21D;52170;45.018;37.910;2023-06-01T05:07:37;19.14;85.73
65199;HTU21D;52170;45.018;37.910;2023-06-01T05:10:06;19.11;85.72
65199;HTU21D;52170;45.018;37.910;2023-06-01T05:12:39;19.08;85.71
65199;HTU21D;52170;45.018;37.910;2023-06-01T05:15:06;19.08;85.70
65199;HTU21D;52170;45.018;37.910;2023-06-01T05:17:33;19.06;85.67
65199;HTU21D;52170;45.018;37.910;2023-06-01T05:20:00;19.06;85.66
65199;HTU21D;52170;45.018;37.910;2023-06-01T05:22:26;19.06;85.61
65199;HTU21D;52170;45.018;37.910;2023-06-01T05:24:52;19.07;85.58
65199;HTU21D;52170;45.018;37.910;2023-06-01T05:27:18;19.08;85.51
65199;HTU21D;52170;45.018;37.910;2023-06-01T05:29:44;19.11;85.46
65199;HTU21D;52170;45.018;37.910;2023-06-01T05:32:10;19.15;85.35
65199;HTU21D;52170;45.018;37.910;2023-06-01T05:34:36;19.22;85.23
65199;HTU21D;52170;45.018;37.910;2023-06-01T05:37:02;19.28;85.09
65199;HTU21D;52170;45.018;37.910;2023-06-01T05:39:28;19.38;84.90
65199;HTU21D;52170;45.018;37.910;2023-06-01T05:41:54;19.44;84.73
65199;HTU21D;52170;45.018;37.910;2023-06-01T05:44:20;19.53;84.61
65199;HTU21D;52170;45.018;37.910;2023-06-01T05:46:46;19.61;84.52
65199;HTU21D;52170;45.018;37.910;2023-06-01T05:49:13;19.70;84.46
65199;HTU21D;52170;45.018;37.910;2023-06-01T05:51:39;19.80;84.29
65199;HTU21D;52170;45.018;37.910;2023-06-01T05:54:06;19.90;84.29
65199;HTU21D;52170;45.018;37.910;2023-06-01T05:56:32;20.03;84.11
65199;HTU21D;52170;45.018;37.910;2023-06-01T05:58:58;20.09;84.53
65199;HTU21D;52170;45.018;37.910;2023-06-01T06:01:24;20.07;84.26
65199;HTU21D;52170;45.018;37.910;2023-06-01T06:03:50;20.06;84.32
65199;HTU21D;52170;45.018;37.910;2023-06-01T06:06:16;19.99;84.44
65199;HTU21D;52170;45.018;37.910;2023-06-01T06:08:42;19.96;84.58
65199;HTU21D;52170;45.018;37.910;2023-06-01T06:11:08;19.90;84.84
65199;HTU21D;52170;45.018;37.910;2023-06-01T06:13:34;19.89;84.86
65199;HTU21D;52170;45.018;37.910;2023-06-01T06:15:59;19.92;84.83
65199;HTU21D;52170;45.018;37.910;2023-06-01T06:18:25;19.98;84.92
65199;HTU21D;52170;45.018;37.910;2023-06-01T06:20:51;20.03;85.03
65199;HTU21D;52170;45.018;37.910;2023-06-01T06:23:16;20.09;84.81
65199;HTU21D;52170;45.018;37.910;2023-06-01T06:25:42;20.14;84.59
65199;HTU21D;52170;45.018;37.910;2023-06-01T06:28:08;20.21;84.73
65199;HTU21D;52170;45.018;37.910;2023-06-01T06:30:35;20.27;85.02
65199;HTU21D;52170;45.018;37.910;2023-06-01T06:33:00;20.32;84.59
65199;HTU21D;52170;45.018;37.910;2023-06-01T06:35:26;20.40;84.45
65199;HTU21D;52170;45.018;37.910;2023-06-01T06:37:53;20.46;84.22
65199;HTU21D;52170;45.018;37.910;2023-06-01T06:40:18;20.55;83.99
65199;HTU21D;52170;45.018;37.910;2023-06-01T06:42:45;20.62;83.88
65199;HTU21D;52170;45.018;37.910;2023-06-01T06:45:11;20.71;83.81
65199;HTU21D;52170;45.018;37.910;2023-06-01T06:47:37;20.79;83.67
65199;HTU21D;52170;45.018;37.910;2023-06-01T06:50:03;20.88;83.81
65199;HTU21D;52170;45.018;37.910;2023-06-01T06:52:29;20.95;83.62
65199;HTU21D;52170;45.018;37.910;2023-06-01T06:54:54;20.98;83.55
65199;HTU21D;52170;45.018;37.910;2023-06-01T06:57:20;20.96;83.42
65199;HTU21D;52170;45.018;37.910;2023-06-01T06:59:46;21.01;83.26
65199;HTU21D;52170;45.018;37.910;2023-06-01T07:02:12;21.05;82.86
65199;HTU21D;52170;45.018;37.910;2023-06-01T07:04:38;21.15;82.75
65199;HTU21D;52170;45.018;37.910;2023-06-01T07:07:04;21.25;82.61
65199;HTU21D;52170;45.018;37.910;2023-06-01T07:09:31;21.35;82.02
65199;HTU21D;52170;45.018;37.910;2023-06-01T07:11:57;21.40;81.33
65199;HTU21D;52170;45.018;37.910;2023-06-01T07:14:22;21.39;80.49
65199;HTU21D;52170;45.018;37.910;2023-06-01T07:16:48;21.39;81.04
65199;HTU21D;52170;45.018;37.910;2023-06-01T07:19:14;21.37;80.60
65199;HTU21D;52170;45.018;37.910;2023-06-01T07:21:39;21.36;80.75
65199;HTU21D;52170;45.018;37.910;2023-06-01T07:24:07;21.40;81.28
65199;HTU21D;52170;45.018;37.910;2023-06-01T07:26:33;21.44;81.23
65199;HTU21D;52170;45.018;37.910;2023-06-01T07:28:59;21.42;80.58
65199;HTU21D;52170;45.018;37.910;2023-06-01T07:31:25;21.38;81.01
65199;HTU21D;52170;45.018;37.910;2023-06-01T07:33:53;21.36;81.07
65199;HTU21D;52170;45.018;37.910;2023-06-01T07:36:21;21.36;80.84
65199;HTU21D;52170;45.018;37.910;2023-06-01T07:38:49;21.36;81.01
65199;HTU21D;52170;45.018;37.910;2023-06-01T07:41:14;21.36;80.95
65199;HTU21D;52170;45.018;37.910;2023-06-01T07:43:40;21.38;80.72
65199;HTU21D;52170;45.018;37.910;2023-06-01T07:46:06;21.39;80.59
65199;HTU21D;52170;45.018;37.910;2023-06-01T07:48:31;21.45;80.56
65199;HTU21D;52170;45.018;37.910;2023-06-01T07:51:03;21.51;80.61
65199;HTU21D;52170;45.018;37.910;2023-06-01T07:53:29;21.58;80.39
65199;HTU21D;52170;45.018;37.910;2023-06-01T07:55:56;21.62;80.33
65199;HTU21D;52170;45.018;37.910;2023-06-01T07:58:22;21.66;80.27
65199;HTU21D;52170;45.018;37.910;2023-06-01T08:00:48;21.69;80.23
65199;HTU21D;52170;45.018;37.910;2023-06-01T08:03:14;21.73;80.14
65199;HTU21D;52170;45.018;37.910;2023-06-01T08:05:40;21.72;80.08
65199;HTU21D;52170;45.018;37.910;2023-06-01T08:08:07;21.63;80.21
65199;HTU21D;52170;45.018;37.910;2023-06-01T08:10:33;21.47;80.13
65199;HTU21D;52170;45.018;37.910;2023-06-01T08:12:58;21.33;80.61
65199;HTU21D;52170;45.018;37.910;2023-06-01T08:15:24;21.20;80.76
65199;HTU21D;52170;45.018;37.910;2023-06-01T08:17:54;21.03;81.21
65199;HTU21D;52170;45.018;37.910;2023-06-01T08:20:20;20.84;81.53
65199;HTU21D;52170;45.018;37.910;2023-06-01T08:22:49;20.63;81.99
65199;HTU21D;52170;45.018;37.910;2023-06-01T08:25:16;20.50;82.27
65199;HTU21D;52170;45.018;37.910;2023-06-01T08:27:42;20.37;82.49
65199;HTU21D;52170;45.018;37.910;2023-06-01T08:30:08;20.22;82.76
65199;HTU21D;52170;45.018;37.910;2023-06-01T08:32:34;20.11;82.88
65199;HTU21D;52170;45.018;37.910;2023-06-01T08:35:00;20.04;83.29
65199;HTU21D;52170;45.018;37.910;2023-06-01T08:37:26;19.94;83.32
65199;HTU21D;52170;45.018;37.910;2023-06-01T08:39:51;19.89;83.42
65199;HTU21D;52170;45.018;37.910;2023-06-01T08:42:20;19.87;83.67
65199;HTU21D;52170;45.018;37.910;2023-06-01T08:44:48;19.88;84.23
65199;HTU21D;52170;45.018;37.910;2023-06-01T08:47:17;19.89;84.60
65199;HTU21D;52170;45.018;37.910;2023-06-01T08:49:44;19.94;84.06
65199;HTU21D;52170;45.018;37.910;2023-06-01T08:52:13;19.99;85.19
65199;HTU21D;52170;45.018;37.910;2023-06-01T08:54:39;20.02;85.02
65199;HTU21D;52170;45.018;37.910;2023-06-01T08:57:05;20.05;84.39
65199;HTU21D;52170;45.018;37.910;2023-06-01T08:59:33;20.16;84.29
65199;HTU21D;52170;45.018;37.910;2023-06-01T09:01:59;20.27;84.13
65199;HTU21D;52170;45.018;37.910;2023-06-01T09:04:25;20.44;84.15
65199;HTU21D;52170;45.018;37.910;2023-06-01T09:06:51;20.63;83.93
65199;HTU21D;52170;45.018;37.910;2023-06-01T09:09:17;20.81;83.56
65199;HTU21D;52170;45.018;37.910;2023-06-01T09:11:43;20.92;83.76
65199;HTU21D;52170;45.018;37.910;2023-06-01T09:14:19;20.91;83.01
65199;HTU21D;52170;45.018;37.910;2023-06-01T09:16:46;20.94;83.20
65199;HTU21D;52170;45.018;37.910;2023-06-01T09:19:11;20.95;82.81
65199;HTU21D;52170;45.018;37.910;2023-06-01T09:21:37;20.98;82.87
65199;HTU21D;52170;45.018;37.910;2023-06-01T09:24:21;21.06;83.00
65199;HTU21D;52170;45.018;37.910;2023-06-01T09:26:50;21.35;83.04
65199;HTU21D;52170;45.018;37.910;2023-06-01T09:29:16;21.53;81.81
65199;HTU21D;52170;45.018;37.910;2023-06-01T09:31:46;21.70;79.67
65199;HTU21D;52170;45.018;37.910;2023-06-01T09:34:13;21.92;80.01
65199;HTU21D;52170;45.018;37.910;2023-06-01T09:36:44;22.08;77.81
65199;HTU21D;52170;45.018;37.910;2023-06-01T09:39:11;22.14;78.69
65199;HTU21D;52170;45.018;37.910;2023-06-01T09:44:12;22.28;74.92
65199;HTU21D;52170;45.018;37.910;2023-06-01T09:46:51;22.31;75.26
65199;HTU21D;52170;45.018;37.910;2023-06-01T09:49:21;22.33;76.02
65199;HTU21D;52170;45.018;37.910;2023-06-01T09:51:47;22.34;72.34
65199;HTU21D;52170;45.018;37.910;2023-06-01T09:54:25;22.37;74.00
65199;HTU21D;52170;45.018;37.910;2023-06-01T09:56:52;22.38;73.28
65199;HTU21D;52170;45.018;37.910;2023-06-01T09:59:18;22.46;73.77
65199;HTU21D;52170;45.018;37.910;2023-06-01T10:01:44;22.56;73.84
65199;HTU21D;52170;45.018;37.910;2023-06-01T10:04:12;22.61;71.51
65199;HTU21D;52170;45.018;37.910;2023-06-01T10:06:40;22.63;69.76
65199;HTU21D;52170;45.018;37.910;2023-06-01T10:09:08;22.67;71.58
65199;HTU21D;52170;45.018;37.910;2023-06-01T10:11:38;22.76;70.25
65199;HTU21D;52170;45.018;37.910;2023-06-01T10:14:04;22.88;67.47
65199;HTU21D;52170;45.018;37.910;2023-06-01T10:16:30;22.87;67.48
65199;HTU21D;52170;45.018;37.910;2023-06-01T10:18:56;22.78;68.42
65199;HTU21D;52170;45.018;37.910;2023-06-01T10:21:23;22.84;68.19
65199;HTU21D;52170;45.018;37.910;2023-06-01T10:23:49;22.96;68.63
65199;HTU21D;52170;45.018;37.910;2023-06-01T10:26:15;23.08;67.71
65199;HTU21D;52170;45.018;37.910;2023-06-01T10:28:42;23.27;68.01
65199;HTU21D;52170;45.018;37.910;2023-06-01T10:33:57;23.77;67.92
65199;HTU21D;52170;45.018;37.910;2023-06-01T10:36:23;23.81;65.94
65199;HTU21D;52170;45.018;37.910;2023-06-01T10:39:20;23.81;67.36
65199;HTU21D;52170;45.018;37.910;2023-06-01T10:41:37;23.83;65.65
65199;HTU21D;52170;45.018;37.910;2023-06-01T10:44:03;23.82;65.01
65199;HTU21D;52170;45.018;37.910;2023-06-01T10:46:35;23.77;65.98
65199;HTU21D;52170;45.018;37.910;2023-06-01T10:49:01;23.80;65.56
65199;HTU21D;52170;45.018;37.910;2023-06-01T10:51:27;23.87;66.09
65199;HTU21D;52170;45.018;37.910;2023-06-01T10:53:54;23.90;65.30
65199;HTU21D;52170;45.018;37.910;2023-06-01T10:56:20;23.96;65.58
65199;HTU21D;52170;45.018;37.910;2023-06-01T10:59:29;23.98;65.81
65199;HTU21D;52170;45.018;37.910;2023-06-01T11:01:36;23.95;66.33
65199;HTU21D;52170;45.018;37.910;2023-06-01T11:04:02;23.95;66.45
65199;HTU21D;52170;45.018;37.910;2023-06-01T11:06:29;23.82;66.70
65199;HTU21D;52170;45.018;37.910;2023-06-01T11:09:00;23.69;65.66
65199;HTU21D;52170;45.018;37.910;2023-06-01T11:14:11;23.34;66.44
65199;HTU21D;52170;45.018;37.910;2023-06-01T11:16:37;23.24;67.70
65199;HTU21D;52170;45.018;37.910;2023-06-01T11:19:03;23.09;68.06
65199;HTU21D;52170;45.018;37.910;2023-06-01T11:21:34;22.97;68.04
65199;HTU21D;52170;45.018;37.910;2023-06-01T11:26:34;22.65;68.73
65199;HTU21D;52170;45.018;37.910;2023-06-01T11:29:04;22.61;69.23
65199;HTU21D;52170;45.018;37.910;2023-06-01T11:31:34;22.54;68.81
65199;HTU21D;52170;45.018;37.910;2023-06-01T11:33:59;22.42;68.54
65199;HTU21D;52170;45.018;37.910;2023-06-01T11:36:26;22.27;68.90
65199;HTU21D;52170;45.018;37.910;2023-06-01T11:38:52;22.14;69.22
65199;HTU21D;52170;45.018;37.910;2023-06-01T11:41:24;22.13;69.68
65199;HTU21D;52170;45.018;37.910;2023-06-01T11:43:56;22.18;69.84
65199;HTU21D;52170;45.018;37.910;2023-06-01T11:46:23;22.21;68.59
65199;HTU21D;52170;45.018;37.910;2023-06-01T11:48:58;22.14;68.89
65199;HTU21D;52170;45.018;37.910;2023-06-01T11:51:47;22.08;69.42
65199;HTU21D;52170;45.018;37.910;2023-06-01T11:54:12;22.09;69.75
65199;HTU21D;52170;45.018;37.910;2023-06-01T11:56:38;22.20;69.88
65199;HTU21D;52170;45.018;37.910;2023-06-01T11:59:07;22.33;69.53
65199;HTU21D;52170;45.018;37.910;2023-06-01T12:01:44;22.43;69.46
65199;HTU21D;52170;45.018;37.910;2023-06-01T12:04:18;22.55;69.52
65199;HTU21D;52170;45.018;37.910;2023-06-01T12:06:44;22.69;69.41
65199;HTU21D;52170;45.018;37.910;2023-06-01T12:09:10;22.81;69.42
65199;HTU21D;52170;45.018;37.910;2023-06-01T12:11:37;22.86;69.07
65199;HTU21D;52170;45.018;37.910;2023-06-01T12:14:03;22.93;68.43
65199;HTU21D;52170;45.018;37.910;2023-06-01T12:19:15;22.85;68.71
65199;HTU21D;52170;45.018;37.910;2023-06-01T12:21:46;22.92;68.55
65199;HTU21D;52170;45.018;37.910;2023-06-01T12:24:12;23.01;68.52
65199;HTU21D;52170;45.018;37.910;2023-06-01T12:26:37;23.02;68.68
65199;HTU21D;52170;45.018;37.910;2023-06-01T12:29:03;23.09;68.94
65199;HTU21D;52170;45.018;37.910;2023-06-01T12:31:29;23.13;68.17
65199;HTU21D;52170;45.018;37.910;2023-06-01T12:33:55;23.10;67.27
65199;HTU21D;52170;45.018;37.910;2023-06-01T12:36:35;23.10;68.13
65199;HTU21D;52170;45.018;37.910;2023-06-01T12:39:03;23.07;67.93
65199;HTU21D;52170;45.018;37.910;2023-06-01T12:41:31;22.97;68.30
65199;HTU21D;52170;45.018;37.910;2023-06-01T12:43:57;22.90;68.72
65199;HTU21D;52170;45.018;37.910;2023-06-01T12:46:24;22.79;69.04
65199;HTU21D;52170;45.018;37.910;2023-06-01T12:48:50;22.78;69.37
65199;HTU21D;52170;45.018;37.910;2023-06-01T12:51:16;22.91;69.17
65199;HTU21D;52170;45.018;37.910;2023-06-01T12:53:42;22.96;69.08
65199;HTU21D;52170;45.018;37.910;2023-06-01T12:56:08;22.94;69.10
65199;HTU21D;52170;45.018;37.910;2023-06-01T12:58:34;22.82;68.91
65199;HTU21D;52170;45.018;37.910;2023-06-01T13:00:59;22.63;68.94
65199;HTU21D;52170;45.018;37.910;2023-06-01T13:03:26;22.40;69.30
65199;HTU21D;52170;45.018;37.910;2023-06-01T13:05:51;22.18;70.08
65199;HTU21D;52170;45.018;37.910;2023-06-01T13:08:17;22.08;70.48
65199;HTU21D;52170;45.018;37.910;2023-06-01T13:10:44;22.03;70.82
65199;HTU21D;52170;45.018;37.910;2023-06-01T13:13:10;22.02;70.84
65199;HTU21D;52170;45.018;37.910;2023-06-01T13:15:41;22.02;70.88
65199;HTU21D;52170;45.018;37.910;2023-06-01T13:18:07;22.03;70.94
65199;HTU21D;52170;45.018;37.910;2023-06-01T13:20:33;21.98;71.27
65199;HTU21D;52170;45.018;37.910;2023-06-01T13:22:59;21.96;71.40
65199;HTU21D;52170;45.018;37.910;2023-06-01T13:25:25;21.96;71.48
65199;HTU21D;52170;45.018;37.910;2023-06-01T13:27:51;21.97;71.58
65199;HTU21D;52170;45.018;37.910;2023-06-01T13:30:17;21.95;71.77
65199;HTU21D;52170;45.018;37.910;2023-06-01T13:32:43;21.89;71.84
65199;HTU21D;52170;45.018;37.910;2023-06-01T13:35:09;21.88;71.98
65199;HTU21D;52170;45.018;37.910;2023-06-01T13:37:36;21.80;72.00
65199;HTU21D;52170;45.018;37.910;2023-06-01T13:40:02;21.81;72.09
65199;HTU21D;52170;45.018;37.910;2023-06-01T13:42:30;21.92;72.01
65199;HTU21D;52170;45.018;37.910;2023-06-01T13:44:56;22.21;71.81
65199;HTU21D;52170;45.018;37.910;2023-06-01T13:47:22;22.46;71.08
65199;HTU21D;52170;45.018;37.910;2023-06-01T13:49:47;22.56;70.96
65199;HTU21D;52170;45.018;37.910;2023-06-01T13:52:13;22.58;70.30
65199;HTU21D;52170;45.018;37.910;2023-06-01T13:54:39;22.48;70.04
65199;HTU21D;52170;45.018;37.910;2023-06-01T13:57:05;22.35;70.53
65199;HTU21D;52170;45.018;37.910;2023-06-01T13:59:33;22.23;70.78
65199;HTU21D;52170;45.018;37.910;2023-06-01T14:02:04;22.13;71.31
65199;HTU21D;52170;45.018;37.910;2023-06-01T14:04:30;22.10;71.49
65199;HTU21D;52170;45.018;37.910;2023-06-01T14:06:56;22.08;71.48
65199;HTU21D;52170;45.018;37.910;2023-06-01T14:09:22;22.22;71.57
65199;HTU21D;52170;45.018;37.910;2023-06-01T14:11:54;22.44;70.79
65199;HTU21D;52170;45.018;37.910;2023-06-01T14:14:19;22.54;70.60
65199;HTU21D;52170;45.018;37.910;2023-06-01T14:16:45;22.53;70.32
65199;HTU21D;52170;45.018;37.910;2023-06-01T14:19:11;22.43;70.37
65199;HTU21D;52170;45.018;37.910;2023-06-01T14:21:36;22.24;70.45
65199;HTU21D;52170;45.018;37.910;2023-06-01T14:24:03;22.05;71.04
65199;HTU21D;52170;45.018;37.910;2023-06-01T14:26:29;21.91;71.57
65199;HTU21D;52170;45.018;37.910;2023-06-01T14:28:55;21.79;71.93
65199;HTU21D;52170;45.018;37.910;2023-06-01T14:31:21;21.70;72.27
65199;HTU21D;52170;45.018;37.910;2023-06-01T14:33:46;21.61;72.48
65199;HTU21D;52170;45.018;37.910;2023-06-01T14:36:12;21.51;73.10
65199;HTU21D;52170;45.018;37.910;2023-06-01T14:38:38;21.44;73.69
65199;HTU21D;52170;45.018;37.910;2023-06-01T14:41:04;21.35;74.24
65199;HTU21D;52170;45.018;37.910;2023-06-01T14:43:30;21.24;74.27
65199;HTU21D;52170;45.018;37.910;2023-06-01T14:45:56;21.16;74.38
65199;HTU21D;52170;45.018;37.910;2023-06-01T14:48:21;21.13;74.56
65199;HTU21D;52170;45.018;37.910;2023-06-01T14:50:47;21.08;74.75
65199;HTU21D;52170;45.018;37.910;2023-06-01T14:53:13;21.06;74.76
65199;HTU21D;52170;45.018;37.910;2023-06-01T14:55:39;21.05;75.08
65199;HTU21D;52170;45.018;37.910;2023-06-01T14:58:06;21.00;75.05
65199;HTU21D;52170;45.018;37.910;2023-06-01T15:00:32;20.96;75.25
65199;HTU21D;52170;45.018;37.910;2023-06-01T15:02:58;20.91;75.47
65199;HTU21D;52170;45.018;37.910;2023-06-01T15:05:24;20.89;75.37
65199;HTU21D;52170;45.018;37.910;2023-06-01T15:07:49;20.84;75.65
65199;HTU21D;52170;45.018;37.910;2023-06-01T15:10:15;20.77;76.18
65199;HTU21D;52170;45.018;37.910;2023-06-01T15:12:41;20.70;75.99
65199;HTU21D;52170;45.018;37.910;2023-06-01T15:15:07;20.63;76.34
65199;HTU21D;52170;45.018;37.910;2023-06-01T15:17:32;20.57;76.71
65199;HTU21D;52170;45.018;37.910;2023-06-01T15:19:58;20.49;77.11
65199;HTU21D;52170;45.018;37.910;2023-06-01T15:22:24;20.43;77.43
65199;HTU21D;52170;45.018;37.910;2023-06-01T15:24:50;20.36;77.63
65199;HTU21D;52170;45.018;37.910;2023-06-01T15:27:15;20.31;77.68
65199;HTU21D;52170;45.018;37.910;2023-06-01T15:29:41;20.26;77.60